Time;durP1;ratioP1;P1;durP2;ratioP2;P2;SDS_P1;SDS_P2;PMS_P1;PMS_P2;Temp;Humidity;BMP_temperature;BMP_pressure;BME280_temperature;BME280_humidity;BME280_pressure;Samples;Min_cycle;Max_cycle;Signal;HPM_P1;HPM_P2
2024/01/31 00:01:47;;;;;;;0.08;0.08;;;;;;;7.36;57.96;102352.81;7361429;19;20007;-64
2024/01/31 00:04:13;;;;;;;0.10;0.10;;;;;;;7.42;57.80;102358.13;7366703;19;20027;-64
2024/01/31 00:06:40;;;;;;;0.10;0.10;;;;;;;7.42;58.27;102351.19;7362572;19;20006;-64
2024/01/31 00:09:06;;;;;;;0.10;0.10;;;;;;;7.51;58.31;102360.88;7359145;19;20861;-64
2024/01/31 00:11:31;;;;;;;0.10;0.10;;;;;;;7.34;58.07;102323.31;7365547;19;20089;-64
2024/01/31 00:13:57;;;;;;;0.10;0.10;;;;;;;7.51;58.07;102355.66;7371354;19;20006;-64
2024/01/31 00:16:23;;;;;;;0.10;0.10;;;;;;;7.43;58.22;102342.53;7371503;19;20017;-64
2024/01/31 00:18:51;;;;;;;0.03;0.03;;;;;;;7.47;58.08;102351.25;7360505;19;20010;-64
2024/01/31 00:21:17;;;;;;;0.00;0.00;;;;;;;7.42;58.29;102330.41;7364927;19;20014;-64
2024/01/31 00:23:43;;;;;;;0.10;0.10;;;;;;;7.56;58.19;102346.22;7370336;19;20014;-64
2024/01/31 00:26:08;;;;;;;0.10;0.10;;;;;;;7.40;58.36;102316.50;7363489;19;20021;-64
2024/01/31 00:28:33;;;;;;;0.00;0.00;;;;;;;7.48;58.13;102330.47;7361468;19;20006;-64
2024/01/31 00:30:59;;;;;;;0.10;0.10;;;;;;;7.05;58.48;102260.50;7358250;19;20014;-64
2024/01/31 00:33:24;;;;;;;0.00;0.00;;;;;;;7.43;58.46;102313.94;7362899;19;20352;-64
2024/01/31 00:35:50;;;;;;;0.10;0.10;;;;;;;7.62;58.18;102335.03;7361015;19;20006;-64
2024/01/31 00:38:15;;;;;;;0.10;0.10;;;;;;;7.68;58.41;102337.72;7357529;19;20006;-64
2024/01/31 00:40:40;;;;;;;0.10;0.10;;;;;;;7.61;58.53;102315.09;7357026;19;20003;-64
2024/01/31 00:43:09;;;;;;;0.10;0.10;;;;;;;7.59;58.20;102311.59;7362417;19;20006;-64
2024/01/31 00:45:34;;;;;;;0.10;0.10;;;;;;;7.67;58.62;102325.59;7358309;19;20738;-64
2024/01/31 00:48:00;;;;;;;0.10;0.10;;;;;;;7.62;58.41;102314.25;7362934;19;20021;-64
2024/01/31 00:50:25;;;;;;;0.10;0.10;;;;;;;7.64;58.30;102302.13;7355074;19;20013;-64
2024/01/31 00:52:50;;;;;;;0.10;0.10;;;;;;;7.78;58.55;102326.63;7355996;19;20013;-64
2024/01/31 00:55:16;;;;;;;0.10;0.10;;;;;;;7.77;58.24;102323.16;7362252;19;20046;-64
2024/01/31 00:57:41;;;;;;;0.10;0.10;;;;;;;7.72;58.24;102313.53;7367174;19;20675;-64
2024/01/31 01:00:09;;;;;;;0.10;0.10;;;;;;;7.81;58.47;102318.88;7367502;19;20029;-64
2024/01/31 01:02:40;;;;;;;0.10;0.10;;;;;;;7.87;58.04;102318.97;7371193;19;20444;-64
2024/01/31 01:05:10;;;;;;;0.10;0.10;;;;;;;7.84;58.50;102313.69;7368933;19;20010;-64
2024/01/31 01:07:39;;;;;;;0.10;0.10;;;;;;;7.86;58.50;102314.63;7370393;19;20775;-64
2024/01/31 01:10:15;;;;;;;0.10;0.10;;;;;;;7.89;58.24;102312.03;7371122;19;20018;-64
2024/01/31 01:12:42;;;;;;;0.10;0.10;;;;;;;7.83;58.35;102304.16;7371034;19;22065;-64
2024/01/31 01:15:08;;;;;;;0.10;0.10;;;;;;;7.92;58.48;102312.09;7375981;19;20336;-64
2024/01/31 01:17:35;;;;;;;0.10;0.10;;;;;;;7.79;58.31;102297.16;7363943;19;20014;-64
2024/01/31 01:20:00;;;;;;;0.10;0.10;;;;;;;7.91;57.87;102302.53;7369427;19;20018;-64
2024/01/31 01:22:25;;;;;;;0.10;0.10;;;;;;;7.84;58.17;102287.69;7371268;19;20007;-64
2024/01/31 01:24:52;;;;;;;0.10;0.10;;;;;;;7.75;58.26;102264.16;7371532;19;20022;-64
2024/01/31 01:27:18;;;;;;;0.10;0.10;;;;;;;7.82;58.17;102268.59;7368758;19;20006;-64
2024/01/31 01:29:43;;;;;;;0.10;0.10;;;;;;;7.83;58.01;102270.34;7371087;19;20018;-64
2024/01/31 01:32:08;;;;;;;0.10;0.10;;;;;;;7.89;58.12;102274.75;7366106;19;20547;-64
2024/01/31 01:34:34;;;;;;;0.10;0.10;;;;;;;7.80;57.92;102259.88;7372276;19;20011;-64
2024/01/31 01:36:59;;;;;;;0.10;0.10;;;;;;;7.74;57.95;102231.19;7368125;19;20521;-64
2024/01/31 01:39:28;;;;;;;0.10;0.10;;;;;;;7.64;58.38;102211.13;7363249;19;20010;-64
2024/01/31 01:41:54;;;;;;;0.10;0.10;;;;;;;7.78;58.42;102225.19;7367370;19;20010;-64
2024/01/31 01:44:19;;;;;;;0.10;0.10;;;;;;;7.79;58.23;102234.75;7370976;19;20013;-64
2024/01/31 01:46:45;;;;;;;0.10;0.10;;;;;;;7.77;58.55;102226.94;7371899;19;20025;-64
2024/01/31 01:49:12;;;;;;;0.10;0.10;;;;;;;7.68;58.12;102210.31;7365982;19;20354;-64
2024/01/31 01:51:39;;;;;;;0.03;0.03;;;;;;;7.78;58.12;102230.41;7368076;19;20435;-64
2024/01/31 01:54:05;;;;;;;0.10;0.10;;;;;;;7.71;58.31;102223.38;7373165;19;21562;-63
2024/01/31 01:56:31;;;;;;;0.10;0.10;;;;;;;7.62;58.52;102202.44;7368579;19;20074;-64
2024/01/31 01:58:57;;;;;;;0.00;0.00;;;;;;;7.57;58.38;102198.91;7373998;19;20016;-64
2024/01/31 02:01:25;;;;;;;0.10;0.10;;;;;;;7.73;58.46;102229.47;7372708;19;20010;-64
2024/01/31 02:03:54;;;;;;;0.10;0.10;;;;;;;7.75;58.28;102219.94;7370821;19;20026;-64
2024/01/31 02:06:21;;;;;;;0.05;0.05;;;;;;;7.72;58.58;102219.91;7368091;19;20049;-64
2024/01/31 02:08:46;;;;;;;0.10;0.10;;;;;;;7.68;58.37;102212.94;7367812;19;20014;-64
2024/01/31 02:11:12;;;;;;;0.10;0.10;;;;;;;7.70;58.87;102221.59;7365876;19;20010;-64
2024/01/31 02:13:37;;;;;;;0.10;0.10;;;;;;;7.72;58.76;102214.72;7362023;19;20033;-64
2024/01/31 02:16:03;;;;;;;0.10;0.10;;;;;;;7.59;58.53;102192.00;7370005;19;20010;-64
2024/01/31 02:18:28;;;;;;;0.10;0.10;;;;;;;7.61;58.49;102195.50;7369145;19;20014;-64
2024/01/31 02:20:54;;;;;;;0.00;0.00;;;;;;;7.80;58.58;102218.28;7357122;19;20485;-64
2024/01/31 02:23:23;;;;;;;0.10;0.10;;;;;;;7.79;58.66;102211.34;7367988;19;20018;-64
2024/01/31 02:25:49;;;;;;;0.08;0.08;;;;;;;7.84;58.95;102230.47;7363805;19;20011;-64
2024/01/31 02:28:14;;;;;;;0.00;0.00;;;;;;;7.88;59.08;102224.47;7367689;19;20014;-64
2024/01/31 02:30:40;;;;;;;0.10;0.10;;;;;;;7.88;59.02;102215.78;7362532;19;20648;-64
2024/01/31 02:33:06;;;;;;;0.10;0.10;;;;;;;7.76;58.85;102185.31;7363295;19;20067;-64
2024/01/31 02:35:33;;;;;;;0.00;0.00;;;;;;;7.94;58.70;102208.94;7368044;19;20002;-64
2024/01/31 02:37:59;;;;;;;0.00;0.00;;;;;;;7.81;58.59;102165.44;7368975;19;20014;-63
2024/01/31 02:40:24;;;;;;;0.10;0.10;;;;;;;8.03;58.76;102196.03;7365846;19;20022;-64
2024/01/31 02:42:50;;;;;;;0.10;0.10;;;;;;;8.06;58.47;102196.09;7365574;19;20010;-64
2024/01/31 02:45:16;;;;;;;0.10;0.10;;;;;;;8.09;58.39;102199.56;7369660;19;20010;-64
2024/01/31 02:47:41;;;;;;;0.10;0.10;;;;;;;7.99;58.69;102173.44;7368081;19;20025;-63
2024/01/31 02:50:07;;;;;;;0.10;0.10;;;;;;;8.10;58.61;102170.09;7360976;19;20027;-64
2024/01/31 02:52:32;;;;;;;0.10;0.10;;;;;;;8.09;58.79;102163.13;7370128;19;20466;-64
2024/01/31 02:54:58;;;;;;;0.00;0.00;;;;;;;8.10;58.58;102160.53;7366489;19;20007;-64
2024/01/31 02:57:24;;;;;;;0.10;0.10;;;;;;;8.18;58.67;102166.72;7367442;19;20045;-64
2024/01/31 02:59:50;;;;;;;0.10;0.10;;;;;;;8.11;58.85;102154.50;7360877;19;20622;-64
2024/01/31 03:02:17;;;;;;;0.10;0.10;;;;;;;8.24;58.41;102158.09;7368825;19;20014;-64
2024/01/31 03:04:42;;;;;;;0.10;0.10;;;;;;;8.18;58.72;102139.81;7359873;19;22575;-64
2024/01/31 03:07:08;;;;;;;0.10;0.10;;;;;;;8.19;58.29;102129.41;7365253;19;20015;-64
2024/01/31 03:09:33;;;;;;;0.10;0.10;;;;;;;8.29;58.84;102131.25;7366503;19;20006;-64
2024/01/31 03:11:59;;;;;;;0.00;0.00;;;;;;;8.29;58.69;102119.97;7366009;19;20098;-64
2024/01/31 03:14:24;;;;;;;0.10;0.10;;;;;;;8.27;58.77;102122.56;7361556;19;20010;-64
2024/01/31 03:16:50;;;;;;;0.10;0.10;;;;;;;8.35;58.47;102125.22;7367260;19;20736;-64
2024/01/31 03:19:15;;;;;;;0.10;0.10;;;;;;;8.35;58.36;102116.56;7361361;19;20011;-64
2024/01/31 03:21:41;;;;;;;0.10;0.10;;;;;;;8.32;58.65;102112.22;7365916;19;20018;-64
2024/01/31 03:24:07;;;;;;;0.10;0.10;;;;;;;8.26;58.47;102109.53;7364862;19;20003;-64
2024/01/31 03:26:32;;;;;;;0.10;0.10;;;;;;;8.23;58.45;102099.09;7368445;19;20572;-63
2024/01/31 03:29:01;;;;;;;0.10;0.10;;;;;;;8.29;58.84;102101.75;7370379;19;20946;-63
2024/01/31 03:31:27;;;;;;;0.10;0.10;;;;;;;8.42;58.60;102116.69;7364470;19;20514;-64
2024/01/31 03:33:52;;;;;;;0.10;0.10;;;;;;;8.41;58.97;102094.09;7362593;19;20034;-63
2024/01/31 03:36:17;;;;;;;0.00;0.00;;;;;;;8.42;58.64;102085.44;7363714;19;20006;-64
2024/01/31 03:38:43;;;;;;;0.10;0.10;;;;;;;8.36;58.88;102054.13;7367211;19;20015;-64
2024/01/31 03:41:09;;;;;;;0.10;0.10;;;;;;;8.51;58.82;102075.06;7361070;19;20015;-64
2024/01/31 03:43:35;;;;;;;0.10;0.10;;;;;;;8.49;58.56;102068.13;7367560;19;20099;-64
2024/01/31 03:46:04;;;;;;;0.10;0.10;;;;;;;8.51;58.69;102054.25;7365797;19;20085;-64
2024/01/31 03:48:30;;;;;;;0.10;0.10;;;;;;;8.34;58.53;102029.81;7363669;19;20043;-64
2024/01/31 03:50:58;;;;;;;0.10;0.10;;;;;;;8.46;58.48;102035.13;7366431;19;20019;-64
2024/01/31 03:53:23;;;;;;;0.10;0.10;;;;;;;8.60;58.67;102036.97;7365880;19;20003;-64
2024/01/31 03:55:49;;;;;;;0.10;0.10;;;;;;;8.53;58.78;102010.88;7366442;19;20021;-64
2024/01/31 03:58:14;;;;;;;0.10;0.10;;;;;;;8.52;58.58;102019.56;7356939;19;20007;-63
2024/01/31 04:00:39;;;;;;;0.10;0.10;;;;;;;8.47;58.67;102013.47;7360859;19;20015;-64
2024/01/31 04:03:05;;;;;;;0.10;0.10;;;;;;;8.25;58.36;101949.06;7363412;19;20017;-64
2024/01/31 04:05:31;;;;;;;0.10;0.10;;;;;;;8.63;58.45;102022.25;7359213;19;20011;-64
2024/01/31 04:07:57;;;;;;;0.13;0.13;;;;;;;8.46;58.45;101993.47;7363082;19;20031;-64
2024/01/31 04:10:22;;;;;;;0.10;0.10;;;;;;;8.69;58.47;102005.78;7364373;19;20011;-64
2024/01/31 04:12:48;;;;;;;0.10;0.10;;;;;;;8.64;58.71;101989.25;7359608;19;20014;-64
2024/01/31 04:15:14;;;;;;;0.10;0.10;;;;;;;8.46;58.50;101957.03;7365000;19;20014;-64
2024/01/31 04:17:40;;;;;;;0.10;0.10;;;;;;;8.65;58.52;101970.16;7335995;19;20026;-63
2024/01/31 04:20:06;;;;;;;0.20;0.20;;;;;;;8.72;58.62;101996.25;7364930;19;20014;-64
2024/01/31 04:22:32;;;;;;;0.00;0.00;;;;;;;8.74;58.47;101978.03;7360418;19;20030;-64
2024/01/31 04:24:57;;;;;;;0.10;0.10;;;;;;;8.58;58.45;101940.63;7362276;19;20392;-64
2024/01/31 04:27:23;;;;;;;0.10;0.10;;;;;;;8.69;58.91;101957.16;7358272;19;20010;-64
2024/01/31 04:29:48;;;;;;;0.10;0.10;;;;;;;8.70;58.92;101958.03;7365851;19;20699;-64
2024/01/31 04:32:14;;;;;;;0.10;0.10;;;;;;;8.51;58.98;101918.88;7359772;19;20003;-64
2024/01/31 04:34:39;;;;;;;0.00;0.00;;;;;;;8.69;58.96;101948.50;7360759;19;20019;-63
2024/01/31 04:37:05;;;;;;;0.10;0.10;;;;;;;8.73;58.99;101965.88;7362528;19;20014;-64
2024/01/31 04:39:30;;;;;;;0.10;0.10;;;;;;;8.56;58.96;101932.78;7356130;19;20015;-64
2024/01/31 04:41:56;;;;;;;0.10;0.10;;;;;;;8.57;58.90;101934.56;7365004;19;20018;-64
2024/01/31 04:44:21;;;;;;;0.05;0.05;;;;;;;8.54;58.44;101924.09;7367333;19;20023;-63
2024/01/31 04:46:47;;;;;;;0.10;0.10;;;;;;;8.57;58.92;101931.94;7365844;19;20007;-64
2024/01/31 04:49:12;;;;;;;0.10;0.10;;;;;;;8.71;59.15;101949.34;7361918;19;20041;-64
2024/01/31 04:51:41;;;;;;;0.08;0.08;;;;;;;8.72;58.78;101943.31;7360862;19;20006;-64
2024/01/31 04:54:07;;;;;;;0.10;0.10;;;;;;;8.71;59.29;101941.53;7359264;19;20014;-64
2024/01/31 04:56:33;;;;;;;0.10;0.10;;;;;;;8.56;59.09;101922.38;7359078;19;20029;-64
2024/01/31 04:58:58;;;;;;;0.10;0.10;;;;;;;8.58;59.04;101918.06;7364180;19;20010;-64
2024/01/31 05:01:23;;;;;;;0.10;0.10;;;;;;;8.70;58.96;101948.50;7371078;19;20007;-64
2024/01/31 05:03:49;;;;;;;0.10;0.10;;;;;;;8.65;59.07;101929.38;7360531;19;20014;-63
2024/01/31 05:06:15;;;;;;;0.13;0.13;;;;;;;8.73;59.23;101939.84;7359368;19;20011;-64
2024/01/31 05:08:40;;;;;;;0.10;0.10;;;;;;;8.72;59.10;101922.47;7365235;19;20006;-63
2024/01/31 05:11:06;;;;;;;0.10;0.10;;;;;;;8.57;59.73;101886.81;7361071;19;20011;-64
2024/01/31 05:13:32;;;;;;;0.10;0.10;;;;;;;8.44;59.43;101865.06;7368512;19;20458;-63
2024/01/31 05:15:57;;;;;;;0.10;0.10;;;;;;;8.71;59.24;101899.88;7362312;19;20332;-64
2024/01/31 05:18:23;;;;;;;0.10;0.10;;;;;;;8.72;59.37;101888.63;7355417;19;20017;-64
2024/01/31 05:20:48;;;;;;;0.15;0.15;;;;;;;8.76;59.26;101880.78;7355471;19;20014;-63
2024/01/31 05:23:13;;;;;;;0.10;0.10;;;;;;;8.69;59.48;101862.56;7362766;19;20010;-63
2024/01/31 05:25:39;;;;;;;0.10;0.10;;;;;;;8.71;59.66;101858.22;7360500;19;20617;-64
2024/01/31 05:28:04;;;;;;;0.10;0.10;;;;;;;8.64;59.07;101851.25;7363875;19;20066;-64
2024/01/31 05:30:30;;;;;;;0.10;0.10;;;;;;;8.54;59.25;101819.09;7359162;19;20018;-64
2024/01/31 05:32:55;;;;;;;0.10;0.10;;;;;;;8.64;59.45;101825.22;7365870;19;20037;-64
2024/01/31 05:35:21;;;;;;;0.10;0.10;;;;;;;8.81;59.14;101854.78;7362378;19;20332;-63
2024/01/31 05:37:46;;;;;;;0.10;0.10;;;;;;;8.64;59.58;101826.09;7362201;19;20010;-64
2024/01/31 05:40:16;;;;;;;0.10;0.10;;;;;;;8.78;59.39;101836.56;7369802;19;20021;-64
2024/01/31 05:42:42;;;;;;;0.10;0.10;;;;;;;8.81;59.69;101849.56;7361982;19;19998;-63
2024/01/31 05:45:08;;;;;;;0.10;0.10;;;;;;;8.74;59.10;101808.75;7374453;19;20030;-64
2024/01/31 05:47:34;;;;;;;0.10;0.10;;;;;;;8.80;59.31;101812.22;7372766;19;20607;-64
2024/01/31 05:49:59;;;;;;;0.00;0.00;;;;;;;8.77;59.40;101800.97;7368236;19;20018;-64
2024/01/31 05:52:25;;;;;;;0.10;0.10;;;;;;;8.83;59.38;101816.59;7367917;19;20021;-64
2024/01/31 05:54:50;;;;;;;0.10;0.10;;;;;;;8.79;59.68;101805.28;7366797;19;20022;-63
2024/01/31 05:57:15;;;;;;;0.10;0.10;;;;;;;8.79;59.68;101784.47;7371447;19;20431;-64
2024/01/31 05:59:41;;;;;;;0.10;0.10;;;;;;;8.83;59.49;101775.78;7365051;19;20023;-64
2024/01/31 06:02:07;;;;;;;0.10;0.10;;;;;;;8.76;59.91;101757.53;7374737;19;20771;-63
2024/01/31 06:04:32;;;;;;;0.10;0.10;;;;;;;8.64;59.48;101737.56;7363346;19;20018;-63
2024/01/31 06:06:58;;;;;;;0.10;0.10;;;;;;;8.71;59.92;101743.63;7365403;19;20021;-63
2024/01/31 06:09:23;;;;;;;0.10;0.10;;;;;;;8.87;59.70;101780.97;7363658;19;20014;-63
2024/01/31 06:11:48;;;;;;;0.10;0.10;;;;;;;8.70;59.74;101754.91;7368801;19;20015;-64
2024/01/31 06:14:14;;;;;;;0.10;0.10;;;;;;;8.91;59.70;101765.38;7366013;19;20022;-64
2024/01/31 06:16:39;;;;;;;0.10;0.10;;;;;;;8.85;59.82;101762.75;7367589;19;20014;-64
2024/01/31 06:19:05;;;;;;;0.10;0.10;;;;;;;8.79;59.92;101748.00;7368320;19;20010;-63
2024/01/31 06:21:30;;;;;;;0.10;0.10;;;;;;;8.91;60.08;101747.13;7378572;19;20380;-64
2024/01/31 06:23:56;;;;;;;0.10;0.10;;;;;;;8.94;60.02;101741.94;7368226;19;20010;-64
2024/01/31 06:26:22;;;;;;;0.10;0.10;;;;;;;8.96;59.66;101749.75;7362656;19;20011;-63
2024/01/31 06:28:48;;;;;;;0.10;0.10;;;;;;;8.79;59.99;101726.28;7370105;19;20011;-64
2024/01/31 06:31:25;;;;;;;0.10;0.10;;;;;;;8.98;59.85;101735.88;7359745;19;20018;-63
2024/01/31 06:33:50;;;;;;;0.10;0.10;;;;;;;8.88;60.01;101715.88;7371875;19;20030;-63
2024/01/31 06:36:18;;;;;;;0.10;0.10;;;;;;;8.99;59.92;101708.94;7370036;19;21407;-63
2024/01/31 06:38:44;;;;;;;0.10;0.10;;;;;;;9.05;59.75;101734.97;7366845;19;20013;-63
2024/01/31 06:41:15;;;;;;;0.00;0.00;;;;;;;9.10;59.81;101737.59;7363494;19;20007;-64
2024/01/31 06:43:40;;;;;;;0.13;0.13;;;;;;;9.06;59.64;101728.91;7377158;19;20025;-64
2024/01/31 06:46:06;;;;;;;0.10;0.10;;;;;;;8.99;59.63;101708.94;7366813;19;20018;-64
2024/01/31 06:48:31;;;;;;;0.10;0.10;;;;;;;9.13;59.62;101713.28;7349268;19;20006;-64
2024/01/31 06:50:57;;;;;;;0.10;0.10;;;;;;;8.83;59.92;101655.97;7367253;19;20014;-64
2024/01/31 06:53:22;;;;;;;0.10;0.10;;;;;;;9.12;59.93;101725.41;7364430;19;20109;-64
2024/01/31 06:55:48;;;;;;;0.10;0.10;;;;;;;9.00;59.97;101697.66;7368449;19;20739;-64
2024/01/31 06:58:13;;;;;;;0.10;0.10;;;;;;;9.17;60.09;101728.03;7359020;19;20011;-64
2024/01/31 07:00:39;;;;;;;0.10;0.10;;;;;;;9.00;60.12;101697.66;7366910;19;20029;-63
2024/01/31 07:03:08;;;;;;;0.13;0.13;;;;;;;9.04;60.20;101707.19;7365763;19;20007;-64
2024/01/31 07:05:33;;;;;;;0.10;0.10;;;;;;;9.18;59.94;101730.66;7366625;19;20009;-63
2024/01/31 07:07:59;;;;;;;0.10;0.10;;;;;;;9.07;59.92;101702.00;7367813;19;20347;-64
2024/01/31 07:10:24;;;;;;;0.10;0.10;;;;;;;9.19;60.17;101715.88;7367212;19;20036;-63
2024/01/31 07:12:52;;;;;;;0.10;0.10;;;;;;;8.79;60.02;101640.34;7364404;19;21028;-64
2024/01/31 07:15:19;;;;;;;0.15;0.15;;;;;;;9.10;59.96;101695.91;7361835;19;20765;-64
2024/01/31 07:17:45;;;;;;;0.00;0.00;;;;;;;9.20;60.11;101715.00;7362300;19;20007;-63
2024/01/31 07:20:10;;;;;;;0.10;0.10;;;;;;;9.13;60.00;101689.84;7365070;19;20503;-64
2024/01/31 07:22:36;;;;;;;0.10;0.10;;;;;;;9.18;60.39;101703.72;7360313;19;20482;-64
2024/01/31 07:25:02;;;;;;;0.10;0.10;;;;;;;9.06;60.18;101663.75;7367819;19;20413;-64
2024/01/31 07:27:27;;;;;;;0.10;0.10;;;;;;;9.10;60.40;101664.63;7362776;19;20014;-63
2024/01/31 07:29:53;;;;;;;0.10;0.10;;;;;;;9.08;60.26;101635.97;7365440;19;20021;-63
2024/01/31 07:32:18;;;;;;;0.10;0.10;;;;;;;9.20;60.44;101650.72;7363798;19;20015;-64
2024/01/31 07:34:43;;;;;;;0.10;0.10;;;;;;;9.16;60.37;101642.91;7364039;19;20017;-64
2024/01/31 07:37:09;;;;;;;0.03;0.03;;;;;;;9.19;60.36;101658.56;7357547;19;20014;-64
2024/01/31 07:39:34;;;;;;;0.10;0.10;;;;;;;9.20;60.42;101671.56;7360203;19;19999;-64
2024/01/31 07:42:00;;;;;;;0.03;0.03;;;;;;;9.05;60.55;101645.53;7360139;19;20006;-64
2024/01/31 07:44:25;;;;;;;0.10;0.10;;;;;;;9.21;60.55;101693.28;7361711;19;20918;-63
2024/01/31 07:46:50;;;;;;;0.10;0.10;;;;;;;9.22;60.14;101692.41;7368034;19;20009;-64
2024/01/31 07:49:16;;;;;;;0.10;0.10;;;;;;;9.21;60.10;101672.44;7359725;19;20119;-63
2024/01/31 07:51:43;;;;;;;0.00;0.00;;;;;;;9.10;60.49;101639.44;7364382;19;20017;-63
2024/01/31 07:54:08;;;;;;;0.10;0.10;;;;;;;9.24;60.73;101669.84;7361338;19;20007;-64
2024/01/31 07:56:34;;;;;;;0.10;0.10;;;;;;;9.13;60.26;101642.94;7353337;19;20009;-63
2024/01/31 07:58:59;;;;;;;0.10;0.10;;;;;;;9.17;60.51;101636.81;7360890;19;20014;-65
2024/01/31 08:01:24;;;;;;;0.10;0.10;;;;;;;9.24;60.72;101647.25;7367241;19;20107;-64
2024/01/31 08:03:50;;;;;;;0.10;0.10;;;;;;;9.21;60.60;101668.09;7352581;19;20037;-64
2024/01/31 08:06:15;;;;;;;0.10;0.10;;;;;;;9.20;60.42;101639.44;7357351;19;20098;-64
2024/01/31 08:08:45;;;;;;;0.10;0.10;;;;;;;9.04;60.79;101605.59;7362502;19;20014;-64
2024/01/31 08:11:11;;;;;;;0.10;0.10;;;;;;;9.23;60.44;101661.16;7363826;19;20061;-63
2024/01/31 08:13:37;;;;;;;0.10;0.10;;;;;;;9.20;60.74;101665.50;7363455;19;20018;-64
2024/01/31 08:16:02;;;;;;;0.10;0.10;;;;;;;9.24;60.83;101662.00;7359498;19;19999;-64
2024/01/31 08:18:28;;;;;;;0.10;0.10;;;;;;;9.21;61.00;101642.03;7364401;19;20014;-63
2024/01/31 08:20:53;;;;;;;0.10;0.10;;;;;;;9.02;60.71;101599.53;7360878;19;19998;-63
2024/01/31 08:23:18;;;;;;;0.10;0.10;;;;;;;9.15;60.91;101641.19;7352812;19;20017;-63
2024/01/31 08:25:44;;;;;;;0.10;0.10;;;;;;;9.20;60.78;101642.03;7370547;19;19998;-64
2024/01/31 08:28:09;;;;;;;0.10;0.10;;;;;;;9.10;61.04;101608.19;7365766;19;20049;-63
2024/01/31 08:30:35;;;;;;;0.10;0.10;;;;;;;9.08;60.78;101620.34;7360671;19;20018;-64
2024/01/31 08:33:00;;;;;;;0.10;0.10;;;;;;;9.27;60.86;101636.78;7364487;19;20106;-63
2024/01/31 08:35:25;;;;;;;0.10;0.10;;;;;;;9.28;61.37;101619.44;7357458;19;20350;-64
2024/01/31 08:37:51;;;;;;;0.10;0.10;;;;;;;9.27;61.14;101615.06;7362618;19;20028;-64
2024/01/31 08:40:16;;;;;;;0.08;0.08;;;;;;;9.21;60.96;101578.63;7345192;19;20013;-64
2024/01/31 08:42:42;;;;;;;0.03;0.03;;;;;;;9.23;61.08;101576.88;7344838;19;20048;-64
2024/01/31 08:45:09;;;;;;;0.13;0.13;;;;;;;9.33;60.98;101556.00;7363316;19;20006;-64
2024/01/31 08:47:35;;;;;;;0.10;0.10;;;;;;;9.15;60.86;101518.72;7363203;19;20018;-63
2024/01/31 08:50:00;;;;;;;0.10;0.10;;;;;;;9.32;61.51;101535.13;7361467;19;20015;-63
2024/01/31 08:52:26;;;;;;;0.10;0.10;;;;;;;9.22;61.43;101494.34;7372323;19;20094;-63
2024/01/31 08:54:51;;;;;;;0.10;0.10;;;;;;;9.38;61.32;101489.91;7359798;19;20105;-63
2024/01/31 08:57:17;;;;;;;0.10;0.10;;;;;;;9.37;61.27;101478.63;7354381;19;20010;-64
2024/01/31 08:59:42;;;;;;;0.10;0.10;;;;;;;9.40;61.08;101486.44;7361233;19;20458;-64
2024/01/31 09:02:08;;;;;;;0.10;0.10;;;;;;;9.21;61.17;101477.84;7364739;19;20010;-64
2024/01/31 09:04:34;;;;;;;0.10;0.10;;;;;;;9.52;61.38;101517.66;7355449;19;20006;-63
2024/01/31 09:06:59;;;;;;;0.10;0.10;;;;;;;9.35;61.56;101488.22;7361728;19;19998;-64
2024/01/31 09:09:24;;;;;;;0.10;0.10;;;;;;;9.56;61.55;101501.13;7367085;19;20019;-63
2024/01/31 09:11:51;;;;;;;0.10;0.10;;;;;;;9.62;61.60;101493.25;7357485;19;20017;-63
2024/01/31 09:14:16;;;;;;;0.20;0.20;;;;;;;9.60;61.19;101510.66;7360076;19;20010;-63
2024/01/31 09:16:41;;;;;;;0.10;0.10;;;;;;;9.60;61.23;101504.59;7363354;19;20017;-63
2024/01/31 09:19:07;;;;;;;0.10;0.10;;;;;;;9.59;61.78;101508.94;7363503;19;20402;-64
2024/01/31 09:21:33;;;;;;;0.10;0.10;;;;;;;9.74;61.71;101525.38;7372995;19;20010;-64
2024/01/31 09:23:58;;;;;;;0.10;0.10;;;;;;;9.79;61.43;101541.88;7365494;19;20006;-64
2024/01/31 09:26:23;;;;;;;0.10;0.10;;;;;;;9.71;61.42;101513.22;7371028;19;20029;-63
2024/01/31 09:28:50;;;;;;;0.10;0.10;;;;;;;9.69;61.67;101493.25;7359913;19;20526;-64
2024/01/31 09:31:25;;;;;;;0.10;0.10;;;;;;;9.91;61.46;101526.13;7373042;19;20090;-64
2024/01/31 09:33:53;;;;;;;0.10;0.10;;;;;;;9.69;61.45;101472.38;7365558;19;20018;-64
2024/01/31 09:36:18;;;;;;;0.10;0.10;;;;;;;9.82;61.69;101515.75;7376386;19;20519;-63
2024/01/31 09:38:44;;;;;;;0.10;0.10;;;;;;;9.92;61.53;101480.03;7335918;19;20010;-64
2024/01/31 09:41:10;;;;;;;0.10;0.10;;;;;;;9.99;61.81;101493.03;7366180;19;20014;-64
2024/01/31 09:43:36;;;;;;;0.10;0.10;;;;;;;9.99;61.56;101487.81;7372144;19;20014;-64
2024/01/31 09:46:05;;;;;;;0.10;0.10;;;;;;;10.01;61.67;101459.94;7366821;19;20485;-63
2024/01/31 09:48:31;;;;;;;0.10;0.10;;;;;;;9.95;61.58;101460.00;7359419;19;20007;-64
2024/01/31 09:51:01;;;;;;;0.10;0.10;;;;;;;10.08;61.60;101487.72;7373954;19;20007;-63
2024/01/31 09:53:27;;;;;;;0.10;0.10;;;;;;;10.02;61.74;101461.69;7363370;19;20059;-64
2024/01/31 09:55:56;;;;;;;0.10;0.10;;;;;;;10.05;61.63;101448.63;7362259;19;20013;-64
2024/01/31 09:58:22;;;;;;;0.10;0.10;;;;;;;10.10;61.86;101464.25;7365374;19;20086;-64
2024/01/31 10:00:50;;;;;;;0.10;0.10;;;;;;;10.06;61.67;101437.28;7363345;19;20529;-64
2024/01/31 10:03:16;;;;;;;0.10;0.10;;;;;;;10.04;62.05;101407.75;7360807;19;20043;-64
2024/01/31 10:05:41;;;;;;;0.10;0.10;;;;;;;10.11;61.48;101419.84;7364074;19;20034;-64
2024/01/31 10:08:07;;;;;;;0.10;0.10;;;;;;;10.24;61.65;101417.16;7363225;19;20070;-64
2024/01/31 10:10:32;;;;;;;0.10;0.10;;;;;;;10.23;61.97;101434.53;7361355;19;20074;-64
2024/01/31 10:12:57;;;;;;;0.10;0.10;;;;;;;10.23;61.82;101407.56;7360337;19;20385;-63
2024/01/31 10:15:23;;;;;;;0.10;0.10;;;;;;;10.14;61.82;101393.72;7365447;19;20014;-64
2024/01/31 10:17:48;;;;;;;0.10;0.10;;;;;;;10.34;61.85;101398.78;7363846;19;20030;-64
2024/01/31 10:20:14;;;;;;;0.10;0.10;;;;;;;10.32;61.94;101374.44;7358356;19;20713;-63
2024/01/31 10:22:40;;;;;;;0.10;0.10;;;;;;;10.26;62.02;101384.09;7361778;19;20010;-64
2024/01/31 10:25:07;;;;;;;0.10;0.10;;;;;;;10.39;62.08;101389.16;7357880;19;20525;-64
2024/01/31 10:27:35;;;;;;;0.10;0.10;;;;;;;10.30;62.08;101373.59;7359238;19;20012;-64
2024/01/31 10:30:07;;;;;;;0.10;0.10;;;;;;;10.47;62.19;101386.44;7370239;19;20018;-64
2024/01/31 10:32:34;;;;;;;0.10;0.10;;;;;;;10.27;62.38;101347.50;7371235;19;20013;-64
2024/01/31 10:35:01;;;;;;;0.20;0.20;;;;;;;10.52;62.22;101383.78;7368670;19;20020;-63
2024/01/31 10:37:27;;;;;;;0.10;0.10;;;;;;;10.35;62.49;101334.38;7361359;19;20018;-64
2024/01/31 10:39:54;;;;;;;0.10;0.10;;;;;;;10.54;62.36;101340.22;7355911;19;20010;-64
2024/01/31 10:42:21;;;;;;;0.10;0.10;;;;;;;10.62;62.23;101339.25;7362045;19;20045;-63
2024/01/31 10:44:48;;;;;;;0.10;0.10;;;;;;;10.50;62.30;101315.91;7366741;19;20627;-63
2024/01/31 10:47:14;;;;;;;0.10;0.10;;;;;;;10.69;62.67;101326.13;7359056;19;20015;-63
2024/01/31 10:49:39;;;;;;;0.10;0.10;;;;;;;10.62;62.47;101297.47;7365651;19;20037;-63
2024/01/31 10:52:09;;;;;;;0.10;0.10;;;;;;;10.76;62.87;101304.28;7363220;19;20037;-63
2024/01/31 10:54:39;;;;;;;0.10;0.10;;;;;;;10.81;62.72;101305.06;7358249;19;20464;-63
2024/01/31 10:57:06;;;;;;;0.10;0.10;;;;;;;10.85;62.52;101288.47;7362245;19;20062;-63
2024/01/31 10:59:38;;;;;;;0.10;0.10;;;;;;;10.84;62.59;101273.66;7361184;19;20324;-63
2024/01/31 11:02:04;;;;;;;0.08;0.08;;;;;;;10.87;62.49;101271.00;7370173;19;20019;-64
2024/01/31 11:04:29;;;;;;;0.10;0.10;;;;;;;10.94;62.54;101261.31;7364538;19;20466;-63
2024/01/31 11:07:03;;;;;;;0.10;0.10;;;;;;;10.91;62.65;101241.34;7360925;19;20066;-63
2024/01/31 11:09:29;;;;;;;0.20;0.20;;;;;;;11.02;62.77;101241.16;7360570;19;20011;-64
2024/01/31 11:12:11;;;;;;;0.10;0.10;;;;;;;11.07;62.39;101221.91;7358025;19;20645;-63
2024/01/31 11:14:39;;;;;;;0.10;0.10;;;;;;;10.78;62.47;101150.97;7357924;19;20014;-63
2024/01/31 11:17:09;;;;;;;0.15;0.15;;;;;;;11.12;62.57;101238.38;7359969;19;20029;-63
2024/01/31 11:19:40;;;;;;;0.20;0.20;;;;;;;11.10;62.77;101227.09;7349660;19;20022;-64
2024/01/31 11:22:07;;;;;;;0.10;0.10;;;;;;;11.09;62.84;101220.13;7358130;19;20074;-63
2024/01/31 11:24:33;;;;;;;0.10;0.10;;;;;;;11.16;62.93;101271.44;7358073;19;20018;-64
2024/01/31 11:27:03;;;;;;;0.10;0.10;;;;;;;11.08;62.95;101207.94;7359953;19;20336;-63